Time;durP1;ratioP1;P1;durP2;ratioP2;P2;SDS_P1;SDS_P2;PMS_P1;PMS_P2;Temp;Humidity;BMP_temperature;BMP_pressure;BME280_temperature;BME280_humidity;BME280_pressure;Samples;Min_cycle;Max_cycle;Signal;HPM_P1;HPM_P2
2021/12/07 00:00:39;;;;;;;3.65;1.30;;;4.70;92.90;;;;;;10128784;28;20083;-72
2021/12/07 00:05:30;;;;;;;2.42;1.42;;;4.60;92.80;;;;;;10117672;28;20086;-72
2021/12/07 00:10:21;;;;;;;2.05;1.55;;;4.70;92.80;;;;;;10111918;28;20032;-73
2021/12/07 00:15:16;;;;;;;1.13;0.85;;;4.70;92.70;;;;;;10116631;28;20115;-71
2021/12/07 00:20:13;;;;;;;1.70;1.20;;;4.80;92.70;;;;;;10116563;28;20039;-72
2021/12/07 00:25:05;;;;;;;1.20;1.00;;;4.80;92.70;;;;;;10107328;28;20029;-72
2021/12/07 00:29:56;;;;;;;1.83;0.88;;;4.70;93.00;;;;;;10117442;28;20056;-72
2021/12/07 00:39:57;;;;;;;2.05;1.10;;;4.80;92.90;;;;;;10122705;28;20093;-73
2021/12/07 00:44:48;;;;;;;2.58;1.08;;;4.90;92.80;;;;;;10122895;28;20488;-72
2021/12/07 00:49:40;;;;;;;1.48;1.15;;;5.00;92.70;;;;;;10123604;28;20035;-71
2021/12/07 00:54:31;;;;;;;2.03;1.10;;;5.00;92.80;;;;;;10111051;28;20128;-70
2021/12/07 00:59:21;;;;;;;1.83;1.23;;;5.00;92.80;;;;;;10114216;28;20036;-71
2021/12/07 01:04:12;;;;;;;2.53;1.40;;;5.00;92.80;;;;;;10113364;28;20562;-72
2021/12/07 01:29:28;;;;;;;1.98;1.10;;;5.10;92.80;;;;;;10117146;28;20123;-72
2021/12/07 01:44:40;;;;;;;1.70;0.80;;;5.10;92.90;;;;;;10116097;28;20059;-72
2021/12/07 01:59:43;;;;;;;1.05;0.93;;;5.20;93.00;;;;;;10118566;28;20035;-72
2021/12/07 02:04:34;;;;;;;1.58;0.93;;;5.20;93.10;;;;;;10116956;28;20047;-72
2021/12/07 02:09:25;;;;;;;2.47;0.80;;;5.20;93.40;;;;;;10127881;28;20017;-71
2021/12/07 02:14:16;;;;;;;2.08;0.82;;;5.10;93.10;;;;;;10127139;28;20025;-71
2021/12/07 02:19:07;;;;;;;1.42;0.77;;;5.10;93.10;;;;;;10128523;28;20495;-72
2021/12/07 02:23:58;;;;;;;1.88;1.00;;;5.10;93.20;;;;;;10124755;28;20047;-73
2021/12/07 02:28:52;;;;;;;2.63;0.65;;;5.10;93.30;;;;;;10139913;28;20055;-73
2021/12/07 02:33:42;;;;;;;1.25;0.77;;;5.00;93.40;;;;;;10132092;28;20503;-73
2021/12/07 02:38:33;;;;;;;3.60;1.00;;;5.10;93.40;;;;;;10133610;28;20040;-72
2021/12/07 02:43:25;;;;;;;1.65;0.70;;;5.10;93.40;;;;;;10130358;28;20056;-73
2021/12/07 02:48:16;;;;;;;0.73;0.60;;;5.00;93.40;;;;;;10115338;28;20403;-72
2021/12/07 02:53:07;;;;;;;0.85;0.65;;;5.00;93.50;;;;;;10120193;28;20044;-72
2021/12/07 02:57:58;;;;;;;1.67;0.70;;;5.00;93.60;;;;;;10131435;28;20446;-73
2021/12/07 03:02:57;;;;;;;0.60;0.40;;;4.90;93.50;;;;;;10116261;28;20102;-71
2021/12/07 03:28:23;;;;;;;0.43;0.30;;;4.90;93.50;;;;;;10131991;28;20180;-74
2021/12/07 03:33:14;;;;;;;0.98;0.70;;;4.90;93.70;;;;;;10118806;28;20508;-71
2021/12/07 03:38:06;;;;;;;0.60;0.60;;;5.00;93.70;;;;;;10121580;28;20218;-71
2021/12/07 03:42:59;;;;;;;0.88;0.60;;;5.20;93.70;;;;;;10112190;28;20048;-73
2021/12/07 03:47:51;;;;;;;1.75;0.50;;;5.20;93.70;;;;;;10114114;28;20029;-71
2021/12/07 03:52:42;;;;;;;1.35;0.50;;;5.20;93.70;;;;;;10122245;28;20027;-72
2021/12/07 03:57:32;;;;;;;0.80;0.60;;;5.20;93.70;;;;;;10121602;28;20035;-72
2021/12/07 04:02:24;;;;;;;1.58;0.90;;;5.20;93.80;;;;;;10118877;28;20045;-72
2021/12/07 04:07:14;;;;;;;0.93;0.57;;;5.30;93.80;;;;;;10116032;28;20027;-71
2021/12/07 04:12:05;;;;;;;1.88;0.70;;;5.30;93.90;;;;;;10125986;28;20042;-71
2021/12/07 04:16:56;;;;;;;0.63;0.40;;;5.30;93.90;;;;;;10116902;28;20457;-73
2021/12/07 04:21:47;;;;;;;1.27;0.75;;;5.40;93.80;;;;;;10121992;28;20090;-73
2021/12/07 04:26:38;;;;;;;2.53;0.50;;;5.40;93.80;;;;;;10123160;28;20048;-72
2021/12/07 04:31:29;;;;;;;1.63;0.50;;;5.40;94.20;;;;;;10128004;28;20031;-72
2021/12/07 04:36:20;;;;;;;4.32;0.70;;;5.40;93.90;;;;;;10111524;28;20135;-72
2021/12/07 04:41:11;;;;;;;1.15;0.40;;;5.40;93.80;;;;;;10120378;28;20032;-72
2021/12/07 04:46:11;;;;;;;1.58;1.48;;;5.30;94.00;;;;;;10107161;28;20523;-72
2021/12/07 05:01:21;;;;;;;2.53;0.70;;;5.10;93.90;;;;;;10109890;28;20554;-72
2021/12/07 05:06:13;;;;;;;3.25;2.35;;;5.10;94.00;;;;;;10116300;28;20178;-72
2021/12/07 05:41:35;;;;;;;1.50;0.80;;;5.50;93.90;;;;;;10115551;28;20375;-73
2021/12/07 05:46:26;;;;;;;1.25;0.80;;;5.40;93.90;;;;;;10121178;28;20066;-72
2021/12/07 05:51:16;;;;;;;1.70;0.70;;;5.40;94.00;;;;;;10113272;28;20035;-72
2021/12/07 05:56:07;;;;;;;1.00;0.70;;;5.30;94.00;;;;;;10121932;28;20489;-71
2021/12/07 06:00:58;;;;;;;1.35;0.90;;;5.30;94.10;;;;;;10127834;28;20076;-72
2021/12/07 06:05:49;;;;;;;2.75;0.63;;;5.30;94.10;;;;;;10113638;28;20032;-72
2021/12/07 06:10:40;;;;;;;1.85;0.77;;;5.30;94.10;;;;;;10119439;28;20450;-73
2021/12/07 06:15:33;;;;;;;2.05;1.08;;;5.30;94.20;;;;;;10113468;28;20048;-72
2021/12/07 06:20:24;;;;;;;1.65;0.80;;;5.30;93.90;;;;;;10115326;28;20028;-72
2021/12/07 06:25:15;;;;;;;3.40;0.88;;;5.30;93.80;;;;;;10114828;28;20434;-71
2021/12/07 06:30:08;;;;;;;2.08;0.90;;;5.30;93.80;;;;;;10125574;28;20124;-72
2021/12/07 06:34:59;;;;;;;3.75;1.00;;;5.30;93.80;;;;;;10114315;28;20040;-72
2021/12/07 06:39:49;;;;;;;2.17;0.90;;;5.40;93.80;;;;;;10116410;28;20338;-72
2021/12/07 06:44:40;;;;;;;1.48;0.90;;;5.40;93.70;;;;;;10108888;28;20155;-70
2021/12/07 06:49:31;;;;;;;4.82;1.15;;;5.40;93.80;;;;;;10111783;28;20382;-71
2021/12/07 06:54:22;;;;;;;3.85;1.13;;;5.50;93.80;;;;;;10113538;28;20529;-72
2021/12/07 06:59:13;;;;;;;2.88;1.05;;;5.50;93.70;;;;;;10130003;28;20020;-71
2021/12/07 07:04:04;;;;;;;3.45;1.00;;;5.50;93.80;;;;;;10119492;28;20064;-70
2021/12/07 07:08:55;;;;;;;4.90;1.00;;;5.60;93.70;;;;;;10129398;28;20067;-71
2021/12/07 07:13:46;;;;;;;1.48;0.80;;;5.50;93.70;;;;;;10124817;28;20029;-69
2021/12/07 07:18:37;;;;;;;2.47;0.98;;;5.60;93.70;;;;;;10128598;28;20514;-70
2021/12/07 07:23:29;;;;;;;2.95;1.10;;;5.60;93.80;;;;;;10128870;28;20505;-70
2021/12/07 07:28:20;;;;;;;5.28;2.33;;;5.60;93.60;;;;;;10127058;28;20742;-71
2021/12/07 07:33:11;;;;;;;1.58;0.90;;;5.70;93.50;;;;;;10132376;28;20059;-70
2021/12/07 07:38:02;;;;;;;1.55;1.02;;;5.70;93.50;;;;;;10126958;28;20518;-72
2021/12/07 07:42:53;;;;;;;3.42;1.08;;;5.80;93.50;;;;;;10124678;28;20072;-69
2021/12/07 07:47:44;;;;;;;3.55;1.33;;;5.80;93.40;;;;;;10125326;28;20044;-70
2021/12/07 07:52:35;;;;;;;3.17;1.25;;;6.00;93.30;;;;;;10126411;28;20063;-71
2021/12/07 07:57:27;;;;;;;2.17;1.13;;;6.00;93.20;;;;;;10122493;28;20052;-71
2021/12/07 08:02:17;;;;;;;4.38;1.08;;;5.90;93.30;;;;;;10125829;28;20025;-71
2021/12/07 08:07:08;;;;;;;2.50;1.00;;;5.80;93.40;;;;;;10131605;28;20046;-71
2021/12/07 08:11:59;;;;;;;3.92;1.65;;;5.90;93.40;;;;;;10131841;28;20352;-71
2021/12/07 08:16:51;;;;;;;2.45;1.00;;;5.90;93.40;;;;;;10126697;28;20067;-71
2021/12/07 08:21:41;;;;;;;2.67;0.93;;;5.90;93.30;;;;;;10123678;28;20025;-72
2021/12/07 08:26:33;;;;;;;1.75;1.27;;;5.90;93.70;;;;;;10128681;28;20047;-70
2021/12/07 08:31:25;;;;;;;2.58;1.20;;;5.80;93.40;;;;;;10122387;28;20024;-70
2021/12/07 08:36:17;;;;;;;3.80;0.90;;;5.90;93.50;;;;;;10127537;28;20415;-71
2021/12/07 08:41:08;;;;;;;2.85;1.45;;;5.90;93.30;;;;;;10127825;28;20031;-71
2021/12/07 08:46:00;;;;;;;2.75;1.13;;;6.00;93.40;;;;;;10125740;28;20078;-70
2021/12/07 08:50:52;;;;;;;1.80;0.88;;;5.90;93.40;;;;;;10126492;28;20028;-70
2021/12/07 09:00:54;;;;;;;2.60;1.10;;;5.90;93.30;;;;;;10129148;28;20450;-70
2021/12/07 09:05:45;;;;;;;2.45;1.10;;;5.90;93.20;;;;;;10126769;28;20074;-70
2021/12/07 09:10:36;;;;;;;1.65;1.02;;;5.90;93.40;;;;;;10123176;28;20528;-71
2021/12/07 09:15:27;;;;;;;3.05;1.27;;;6.00;93.30;;;;;;10134630;28;20070;-70
2021/12/07 09:20:18;;;;;;;3.28;0.98;;;6.10;93.20;;;;;;10138188;28;20048;-71
2021/12/07 09:25:08;;;;;;;1.65;1.13;;;6.00;93.20;;;;;;10138306;28;20112;-71
2021/12/07 09:29:59;;;;;;;4.13;1.65;;;6.00;93.30;;;;;;10139935;28;20073;-70
2021/12/07 09:34:50;;;;;;;3.65;1.10;;;6.10;93.30;;;;;;10135520;28;20861;-71
2021/12/07 09:39:40;;;;;;;2.75;1.05;;;6.10;93.20;;;;;;10121749;28;20275;-72
2021/12/07 09:44:31;;;;;;;1.05;0.77;;;6.10;93.20;;;;;;10126002;28;20502;-71
2021/12/07 09:49:22;;;;;;;2.88;0.90;;;6.20;93.00;;;;;;10124144;28;20059;-71
2021/12/07 09:54:13;;;;;;;1.33;0.88;;;6.30;93.00;;;;;;10125011;28;20028;-71
2021/12/07 09:59:07;;;;;;;4.68;1.20;;;6.40;92.90;;;;;;10129573;28;20024;-70
2021/12/07 10:03:58;;;;;;;1.40;1.08;;;6.50;92.90;;;;;;10133493;28;20085;-70
2021/12/07 10:08:49;;;;;;;6.20;1.30;;;6.50;92.80;;;;;;10132974;28;20035;-70
2021/12/07 10:13:43;;;;;;;3.83;1.13;;;6.50;92.80;;;;;;10131908;28;20028;-71
2021/12/07 10:18:36;;;;;;;1.98;1.83;;;6.60;92.90;;;;;;10118965;28;20600;-71
2021/12/07 10:23:39;;;;;;;2.25;1.55;;;6.80;92.80;;;;;;10133093;28;20040;-70
2021/12/07 10:28:43;;;;;;;4.30;1.45;;;7.00;92.60;;;;;;10125372;28;20029;-70
2021/12/07 10:33:42;;;;;;;6.57;2.00;;;7.00;92.90;;;;;;10135619;28;20040;-70
2021/12/07 10:38:33;;;;;;;2.70;1.35;;;7.00;92.30;;;;;;10132491;28;20504;-71
2021/12/07 10:43:45;;;;;;;4.03;1.30;;;6.80;92.30;;;;;;10126982;28;20087;-71
2021/12/07 10:48:36;;;;;;;2.45;1.40;;;6.90;92.30;;;;;;10130835;28;20024;-71
2021/12/07 10:53:35;;;;;;;1.83;1.13;;;7.00;92.00;;;;;;10131491;28;20391;-71
2021/12/07 10:58:30;;;;;;;3.38;1.13;;;6.90;92.00;;;;;;10129946;28;20028;-71
2021/12/07 11:03:25;;;;;;;4.17;0.97;;;6.90;91.80;;;;;;10132066;28;20035;-71
2021/12/07 11:08:19;;;;;;;2.50;1.30;;;7.10;91.70;;;;;;10126502;28;20109;-71
2021/12/07 11:13:22;;;;;;;2.83;1.45;;;7.10;91.60;;;;;;10128933;28;20418;-71
2021/12/07 11:18:13;;;;;;;2.53;1.20;;;7.20;91.40;;;;;;10133859;28;20056;-72
2021/12/07 11:23:12;;;;;;;3.10;1.33;;;7.30;91.40;;;;;;10133908;28;20184;-72
2021/12/07 11:33:23;;;;;;;2.38;1.15;;;7.50;91.20;;;;;;10134759;28;20502;-71
2021/12/07 11:38:13;;;;;;;2.53;1.20;;;7.60;91.00;;;;;;10131520;28;20804;-71
2021/12/07 11:43:18;;;;;;;3.35;1.63;;;7.50;91.00;;;;;;10130333;28;20044;-71
2021/12/07 11:48:09;;;;;;;4.72;1.20;;;7.60;91.00;;;;;;10128515;28;20111;-71
2021/12/07 11:53:01;;;;;;;2.05;1.20;;;7.90;91.00;;;;;;10127837;28;20051;-71
2021/12/07 11:57:53;;;;;;;2.42;1.23;;;8.20;90.90;;;;;;10129448;28;20040;-73
2021/12/07 12:02:44;;;;;;;2.40;1.20;;;8.20;90.80;;;;;;10125634;28;20033;-71
2021/12/07 12:07:36;;;;;;;3.22;1.27;;;8.00;90.60;;;;;;10125755;28;20081;-72
2021/12/07 12:12:53;;;;;;;3.00;1.40;;;7.90;90.70;;;;;;10127515;28;20020;-71
2021/12/07 12:18:13;;;;;;;1.65;0.93;;;7.90;90.70;;;;;;10124381;28;20145;-72
2021/12/07 12:23:20;;;;;;;4.95;0.95;;;7.90;90.50;;;;;;10121423;28;20035;-72
2021/12/07 12:28:11;;;;;;;5.80;1.52;;;7.90;90.30;;;;;;10124382;28;20032;-71
2021/12/07 12:33:11;;;;;;;5.00;1.58;;;8.00;90.40;;;;;;10130008;28;20025;-71
2021/12/07 12:38:03;;;;;;;5.20;1.75;;;8.20;90.20;;;;;;10129302;28;20029;-72
2021/12/07 12:42:57;;;;;;;1.77;1.13;;;8.20;90.20;;;;;;10127629;28;20037;-71
2021/12/07 12:48:05;;;;;;;4.03;1.02;;;8.20;90.20;;;;;;10144780;28;20059;-72
2021/12/07 12:53:21;;;;;;;2.17;1.70;;;8.30;90.20;;;;;;10126715;28;20040;-72
2021/12/07 12:58:17;;;;;;;1.73;1.00;;;8.60;90.00;;;;;;10106228;28;20077;-72
2021/12/07 13:03:09;;;;;;;3.85;1.02;;;8.60;89.70;;;;;;10128808;28;20036;-72
2021/12/07 13:08:17;;;;;;;1.67;0.93;;;8.40;89.70;;;;;;10131822;28;20027;-71
2021/12/07 13:13:28;;;;;;;1.30;1.00;;;8.40;89.80;;;;;;10136449;28;20068;-71
2021/12/07 13:18:21;;;;;;;3.72;1.05;;;8.40;89.70;;;;;;10136317;28;20037;-72
2021/12/07 13:23:14;;;;;;;1.70;1.05;;;8.60;89.30;;;;;;10134607;28;20032;-71
2021/12/07 13:28:13;;;;;;;4.57;0.65;;;8.70;89.10;;;;;;10127685;28;20017;-71
2021/12/07 13:33:24;;;;;;;1.90;1.08;;;8.70;88.80;;;;;;10136494;28;20029;-72
2021/12/07 13:38:27;;;;;;;0.90;0.57;;;8.60;88.70;;;;;;10124453;28;20116;-71
2021/12/07 13:43:36;;;;;;;2.40;0.90;;;8.60;88.70;;;;;;10129721;28;20028;-71
2021/12/07 13:48:28;;;;;;;2.38;0.70;;;8.40;88.10;;;;;;10134148;28;20399;-73
2021/12/07 13:53:19;;;;;;;3.45;1.00;;;8.20;88.50;;;;;;10133204;28;20067;-71
2021/12/07 13:58:11;;;;;;;4.15;1.20;;;8.20;88.70;;;;;;10133349;28;20027;-71
2021/12/07 14:03:07;;;;;;;1.00;0.63;;;8.20;88.50;;;;;;10131848;28;20052;-71
2021/12/07 14:08:01;;;;;;;1.45;0.90;;;8.10;88.40;;;;;;10131689;28;20040;-72
2021/12/07 14:12:54;;;;;;;3.03;1.00;;;8.00;88.50;;;;;;10128554;28;20028;-71
2021/12/07 14:17:51;;;;;;;2.28;1.08;;;7.90;88.40;;;;;;10123207;28;20047;-71
2021/12/07 14:22:46;;;;;;;0.73;0.50;;;7.80;88.30;;;;;;10132688;28;20037;-71
2021/12/07 14:27:36;;;;;;;3.72;2.05;;;7.80;88.60;;;;;;10126748;28;20044;-71
2021/12/07 14:32:27;;;;;;;2.28;0.85;;;7.80;88.70;;;;;;10132047;28;20535;-71
2021/12/07 14:37:18;;;;;;;2.53;1.80;;;7.90;88.70;;;;;;10125037;28;20024;-71
2021/12/07 14:42:16;;;;;;;2.20;1.05;;;7.90;88.60;;;;;;10122126;28;20029;-71
2021/12/07 14:47:08;;;;;;;2.58;1.10;;;7.80;88.50;;;;;;10131572;28;20047;-71
2021/12/07 14:51:59;;;;;;;3.97;1.70;;;7.60;88.40;;;;;;10141981;28;20025;-71
2021/12/07 14:56:52;;;;;;;2.13;0.90;;;7.50;88.70;;;;;;10131879;28;20131;-71
2021/12/07 15:01:52;;;;;;;3.35;0.85;;;7.40;88.60;;;;;;10129373;28;20047;-71
2021/12/07 15:06:47;;;;;;;1.83;0.80;;;7.30;88.50;;;;;;10130945;28;20716;-71
2021/12/07 15:11:44;;;;;;;2.28;0.98;;;7.30;88.60;;;;;;10120421;28;20052;-71
2021/12/07 15:16:39;;;;;;;2.88;1.58;;;7.20;88.60;;;;;;10123823;28;20082;-71
2021/12/07 15:21:32;;;;;;;4.77;1.33;;;7.10;88.70;;;;;;10130931;28;20454;-71
2021/12/07 15:26:25;;;;;;;2.35;1.00;;;7.10;88.70;;;;;;10126907;28;20040;-70
2021/12/07 15:31:19;;;;;;;2.47;1.00;;;7.00;88.80;;;;;;10129706;28;20419;-72
2021/12/07 15:36:24;;;;;;;3.55;2.25;;;6.90;89.00;;;;;;10124333;28;20106;-71
2021/12/07 15:41:15;;;;;;;3.05;1.33;;;6.90;89.00;;;;;;10118812;28;20044;-71
2021/12/07 15:46:06;;;;;;;2.97;1.33;;;6.90;89.10;;;;;;10129374;28;20525;-70
2021/12/07 15:51:01;;;;;;;2.88;1.23;;;6.70;89.20;;;;;;10127690;28;20574;-70
2021/12/07 15:55:51;;;;;;;4.53;1.52;;;6.60;89.30;;;;;;10127112;28;20052;-70
2021/12/07 16:00:57;;;;;;;2.95;1.08;;;6.50;89.50;;;;;;10122959;28;20584;-71
2021/12/07 16:05:59;;;;;;;4.30;1.60;;;6.50;89.70;;;;;;10124851;28;20036;-70
2021/12/07 16:10:54;;;;;;;4.53;1.40;;;6.40;89.70;;;;;;10128118;28;20411;-71
2021/12/07 16:15:52;;;;;;;2.72;1.10;;;6.40;89.70;;;;;;10121998;28;20025;-71
2021/12/07 16:20:43;;;;;;;3.95;1.95;;;6.40;89.90;;;;;;10129761;28;20082;-71
2021/12/07 16:25:35;;;;;;;2.25;0.95;;;6.50;89.80;;;;;;10128085;28;20403;-71
2021/12/07 16:30:26;;;;;;;3.53;1.50;;;6.40;89.90;;;;;;10130395;28;20094;-71
2021/12/07 16:35:17;;;;;;;4.60;0.98;;;6.40;90.00;;;;;;10125994;28;20526;-71
2021/12/07 16:40:17;;;;;;;3.78;1.67;;;6.30;90.30;;;;;;10127074;28;20046;-71
2021/12/07 16:45:08;;;;;;;3.65;1.52;;;6.30;90.00;;;;;;10127237;28;20473;-72
2021/12/07 16:49:59;;;;;;;4.47;2.20;;;6.30;90.10;;;;;;10123706;28;20111;-71
2021/12/07 16:54:49;;;;;;;3.53;1.50;;;6.20;90.10;;;;;;10123306;28;20028;-71
2021/12/07 16:59:40;;;;;;;6.05;1.95;;;6.20;90.10;;;;;;10131246;28;20376;-71
2021/12/07 17:04:31;;;;;;;2.40;1.35;;;6.10;90.20;;;;;;10128946;28;20056;-71
2021/12/07 17:09:21;;;;;;;3.97;1.63;;;6.10;90.20;;;;;;10129734;28;20116;-71
2021/12/07 17:14:12;;;;;;;3.22;1.25;;;6.10;90.20;;;;;;10133917;28;20035;-71
2021/12/07 17:19:04;;;;;;;1.55;1.20;;;6.00;90.20;;;;;;10135599;28;20160;-71
2021/12/07 17:23:54;;;;;;;4.35;1.58;;;6.00;90.20;;;;;;10148775;28;20036;-72
2021/12/07 17:28:46;;;;;;;1.27;1.10;;;6.00;90.20;;;;;;10137383;28;20195;-71
2021/12/07 17:33:37;;;;;;;3.10;1.55;;;6.00;90.20;;;;;;10135746;28;20048;-71
2021/12/07 17:38:28;;;;;;;3.90;2.15;;;5.90;90.20;;;;;;10130439;28;20178;-72
2021/12/07 17:43:21;;;;;;;3.08;1.42;;;5.90;90.30;;;;;;10126603;28;20036;-70
2021/12/07 17:48:12;;;;;;;4.22;2.20;;;6.00;90.20;;;;;;10126571;28;20025;-69
2021/12/07 17:53:04;;;;;;;4.47;1.63;;;6.00;90.20;;;;;;10124718;28;20268;-70
2021/12/07 17:57:56;;;;;;;5.38;2.35;;;5.90;90.30;;;;;;10127316;28;20117;-71
2021/12/07 18:02:48;;;;;;;1.92;1.33;;;5.90;90.30;;;;;;10127824;28;20028;-71
2021/12/07 18:07:42;;;;;;;3.70;2.10;;;5.90;90.20;;;;;;10128646;28;20036;-72
2021/12/07 18:12:33;;;;;;;3.55;1.67;;;6.00;90.30;;;;;;10128047;28;20032;-71
2021/12/07 18:17:25;;;;;;;3.10;1.80;;;5.90;90.20;;;;;;10117347;28;20041;-72
2021/12/07 18:22:16;;;;;;;4.38;1.95;;;5.90;90.20;;;;;;10149954;28;20104;-71
2021/12/07 18:27:06;;;;;;;2.67;1.50;;;5.90;90.20;;;;;;10133736;28;20115;-70
2021/12/07 18:31:58;;;;;;;3.25;1.50;;;5.80;90.20;;;;;;10137624;28;20024;-72
2021/12/07 18:36:50;;;;;;;3.97;1.70;;;5.80;90.30;;;;;;10131158;28;20044;-71
2021/12/07 18:41:41;;;;;;;9.38;2.30;;;5.80;90.30;;;;;;10131463;28;20057;-72
2021/12/07 18:46:32;;;;;;;4.75;2.25;;;5.80;90.30;;;;;;10132741;28;20041;-71
2021/12/07 18:51:24;;;;;;;3.13;2.15;;;5.80;90.30;;;;;;10127789;28;20074;-71
2021/12/07 18:56:16;;;;;;;4.60;2.33;;;5.90;90.30;;;;;;10133139;28;20445;-70
2021/12/07 19:01:14;;;;;;;4.72;1.83;;;5.80;90.20;;;;;;10134606;28;20028;-71
2021/12/07 19:06:06;;;;;;;3.33;2.00;;;5.80;90.30;;;;;;10132419;28;20537;-70
2021/12/07 19:10:57;;;;;;;3.78;1.95;;;5.80;90.30;;;;;;10132638;28;20017;-71
2021/12/07 19:15:48;;;;;;;3.20;1.83;;;5.80;90.30;;;;;;10128120;28;20404;-70
2021/12/07 19:20:40;;;;;;;4.53;2.38;;;5.80;90.20;;;;;;10129747;28;20143;-72
2021/12/07 19:25:31;;;;;;;2.38;1.63;;;5.70;90.40;;;;;;10145075;28;20045;-73
2021/12/07 19:30:25;;;;;;;3.63;1.63;;;5.70;90.50;;;;;;10133300;28;20028;-72
2021/12/07 19:35:19;;;;;;;3.20;1.98;;;5.60;90.40;;;;;;10126543;28;20120;-70
2021/12/07 19:40:11;;;;;;;8.50;2.75;;;5.60;90.40;;;;;;10128885;28;20391;-72
2021/12/07 19:45:03;;;;;;;5.80;1.88;;;5.60;90.40;;;;;;10124985;28;20478;-71
2021/12/07 19:49:53;;;;;;;5.88;2.13;;;5.60;90.40;;;;;;10128793;28;20056;-72
2021/12/07 19:54:44;;;;;;;4.93;2.38;;;5.70;90.30;;;;;;10131655;28;20035;-71
2021/12/07 19:59:42;;;;;;;5.18;2.47;;;5.50;90.40;;;;;;10121732;28;20651;-71
2021/12/07 20:04:33;;;;;;;5.30;1.90;;;5.50;90.40;;;;;;10125022;28;20063;-70
2021/12/07 20:09:24;;;;;;;3.95;1.75;;;5.60;90.40;;;;;;10127426;28;20225;-70
2021/12/07 20:14:22;;;;;;;4.05;1.70;;;5.60;90.40;;;;;;10124486;28;20016;-68
2021/12/07 20:19:14;;;;;;;3.70;1.70;;;5.60;90.30;;;;;;10124502;28;20033;-75
2021/12/07 20:24:05;;;;;;;3.85;1.67;;;5.70;90.30;;;;;;10130103;28;20122;-73
2021/12/07 20:28:57;;;;;;;1.48;1.10;;;5.80;90.30;;;;;;10123433;28;20090;-72
2021/12/07 20:33:49;;;;;;;3.45;2.45;;;5.80;90.20;;;;;;10131307;28;20029;-70
2021/12/07 20:38:41;;;;;;;2.90;1.65;;;5.80;90.20;;;;;;10120959;28;20032;-67
2021/12/07 20:43:34;;;;;;;3.15;1.67;;;6.00;90.20;;;;;;10124299;28;20039;-67
2021/12/07 20:48:25;;;;;;;3.92;1.40;;;6.00;90.20;;;;;;10126959;28;20029;-67
2021/12/07 20:53:16;;;;;;;2.78;1.20;;;6.00;90.10;;;;;;10124698;28;20088;-68
2021/12/07 20:58:08;;;;;;;2.85;1.10;;;6.10;90.10;;;;;;10126554;28;20021;-66
2021/12/07 21:02:58;;;;;;;1.30;0.90;;;6.10;90.00;;;;;;10122863;28;20427;-67
2021/12/07 21:07:49;;;;;;;1.67;1.08;;;6.10;90.00;;;;;;10121593;28;20128;-67
2021/12/07 21:12:41;;;;;;;1.70;1.00;;;6.10;90.00;;;;;;10123236;28;20470;-69
2021/12/07 21:17:32;;;;;;;3.60;1.30;;;6.20;90.00;;;;;;10127965;28;20053;-64
2021/12/07 21:22:27;;;;;;;1.23;1.13;;;6.20;89.90;;;;;;10122288;28;20283;-67
2021/12/07 21:27:18;;;;;;;4.18;1.27;;;6.20;89.90;;;;;;10125442;28;20036;-68
2021/12/07 21:32:09;;;;;;;3.17;1.58;;;6.30;89.60;;;;;;10140843;28;20025;-65
2021/12/07 21:37:00;;;;;;;1.58;1.10;;;6.20;89.70;;;;;;10124616;28;20103;-63
2021/12/07 21:41:51;;;;;;;2.50;1.70;;;6.20;89.80;;;;;;10125824;28;20451;-64
2021/12/07 21:46:42;;;;;;;4.50;1.77;;;6.30;89.70;;;;;;10127245;28;20602;-68
2021/12/07 21:51:33;;;;;;;3.00;1.63;;;6.20;89.10;;;;;;10130264;28;20024;-65
2021/12/07 21:56:24;;;;;;;4.78;2.38;;;6.20;89.80;;;;;;10135795;28;20036;-65
2021/12/07 22:01:15;;;;;;;5.30;1.98;;;6.30;89.90;;;;;;10137384;28;20081;-69
2021/12/07 22:06:06;;;;;;;4.00;1.70;;;6.30;89.70;;;;;;10141123;28;20556;-68
2021/12/07 22:10:59;;;;;;;2.92;1.70;;;6.30;89.90;;;;;;10131726;28;20028;-68
2021/12/07 22:15:50;;;;;;;4.43;1.80;;;6.30;89.90;;;;;;10133555;28;20040;-70
2021/12/07 22:20:41;;;;;;;3.53;2.17;;;6.30;90.00;;;;;;10133766;28;20058;-69
2021/12/07 22:25:32;;;;;;;3.60;1.80;;;6.20;90.20;;;;;;10134347;28;20378;-69
2021/12/07 22:30:23;;;;;;;2.38;1.52;;;6.10;90.30;;;;;;10142847;28;20502;-68
2021/12/07 22:35:14;;;;;;;3.78;1.75;;;6.20;90.20;;;;;;10137383;28;20502;-69
2021/12/07 22:40:06;;;;;;;5.50;1.70;;;6.20;90.40;;;;;;10134081;28;20017;-70
2021/12/07 22:44:58;;;;;;;2.15;1.52;;;6.20;90.30;;;;;;10135761;28;20098;-70
2021/12/07 22:49:50;;;;;;;3.83;1.92;;;6.10;90.30;;;;;;10130522;28;20431;-69
2021/12/07 22:54:41;;;;;;;2.35;1.60;;;6.10;90.50;;;;;;10126137;28;20033;-70
2021/12/07 22:59:32;;;;;;;3.97;1.55;;;6.00;90.50;;;;;;10124477;28;20031;-70
2021/12/07 23:04:23;;;;;;;3.58;1.80;;;6.10;90.50;;;;;;10128092;28;20032;-70
2021/12/07 23:09:15;;;;;;;2.78;1.45;;;6.10;90.50;;;;;;10128084;28;20234;-69
2021/12/07 23:14:09;;;;;;;4.53;1.60;;;6.10;90.60;;;;;;10130137;28;20056;-69
2021/12/07 23:19:01;;;;;;;3.92;1.88;;;6.10;90.50;;;;;;10137988;28;20044;-68
2021/12/07 23:23:59;;;;;;;2.75;1.55;;;6.10;90.60;;;;;;10128059;28;20040;-69
2021/12/07 23:28:50;;;;;;;2.55;1.95;;;6.10;90.70;;;;;;10127586;28;20091;-68
2021/12/07 23:33:45;;;;;;;2.40;1.77;;;6.20;90.60;;;;;;10130059;28;20062;-68
2021/12/07 23:38:36;;;;;;;4.60;2.40;;;6.20;90.70;;;;;;10123224;28;20029;-68
2021/12/07 23:43:27;;;;;;;3.50;2.25;;;6.20;90.70;;;;;;10131762;28;20184;-68
2021/12/07 23:48:18;;;;;;;2.33;1.52;;;6.10;90.90;;;;;;10131118;28;20518;-68
2021/12/07 23:53:09;;;;;;;2.00;1.45;;;6.10;90.90;;;;;;10126655;28;20495;-68
2021/12/07 23:58:02;;;;;;;4.38;2.28;;;6.10;90.90;;;;;;10128908;28;20057;-68
